createdAt,value
2018-06-24T00:00:53.926Z,100171.30
2018-06-24T00:02:29.919Z,100173.02
2018-06-24T00:04:05.921Z,100168.78
2018-06-24T00:05:41.911Z,100170.23
2018-06-24T00:07:17.899Z,100166.36
2018-06-24T00:08:53.909Z,100157.72
2018-06-24T00:10:29.869Z,100168.51
2018-06-24T00:12:05.873Z,100111.03
2018-06-24T00:13:47.628Z,100161.09
2018-06-24T00:15:23.641Z,100152.91
2018-06-24T00:16:59.690Z,100152.44
2018-06-24T00:18:35.753Z,100155.41
2018-06-24T00:20:11.831Z,100156.88
2018-06-24T00:21:47.891Z,100149.89
2018-06-24T00:23:23.859Z,100153.98
2018-06-24T00:24:59.823Z,100149.77
2018-06-24T00:26:35.823Z,100150.50
2018-06-24T00:28:11.798Z,100144.97
2018-06-24T00:29:47.803Z,100143.39
2018-06-24T00:31:23.570Z,100144.28
2018-06-24T00:32:59.978Z,100144.41
2018-06-24T00:34:36.067Z,100142.22
2018-06-24T00:36:12.910Z,100139.45
2018-06-24T00:37:48.945Z,100139.60
2018-06-24T00:39:24.964Z,100130.83
2018-06-24T00:41:01.208Z,100130.97
2018-06-24T00:42:37.246Z,100131.19
2018-06-24T00:44:13.286Z,100130.11
2018-06-24T00:45:49.145Z,100126.27
2018-06-24T00:47:24.723Z,100130.95
2018-06-24T00:49:00.547Z,100127.11
2018-06-24T00:50:36.610Z,100123.98
2018-06-24T00:52:12.598Z,100125.17
2018-06-24T00:53:48.566Z,100127.00
2018-06-24T00:55:24.574Z,100123.52
2018-06-24T00:57:00.804Z,100123.76
2018-06-24T00:58:36.882Z,100125.58
2018-06-24T01:00:16.084Z,100124.17
2018-06-24T01:01:53.497Z,100122.00
2018-06-24T01:03:29.523Z,100120.30
2018-06-24T01:05:05.486Z,100117.41
2018-06-24T01:06:41.494Z,100118.13
2018-06-24T01:08:17.433Z,100117.64
2018-06-24T01:09:53.392Z,100122.69
2018-06-24T01:11:29.140Z,100121.12
2018-06-24T01:13:05.028Z,100125.32
2018-06-24T01:14:41.006Z,100122.33
2018-06-24T01:16:16.945Z,100118.70
2018-06-24T01:17:52.898Z,100112.78
2018-06-24T01:19:28.870Z,100120.12
2018-06-24T01:21:04.828Z,100115.59
2018-06-24T01:22:40.770Z,100116.34
2018-06-24T01:24:16.541Z,100112.33
2018-06-24T01:25:52.291Z,100116.94
2018-06-24T01:27:28.272Z,100109.02
2018-06-24T01:29:04.792Z,100111.80
2018-06-24T01:30:41.161Z,100110.71
2018-06-24T01:32:17.146Z,100115.52
2018-06-24T01:33:53.325Z,100112.88
2018-06-24T01:35:29.321Z,100111.75
2018-06-24T01:37:05.896Z,100110.44
2018-06-24T01:38:42.113Z,100112.67
2018-06-24T01:40:18.194Z,100111.98
2018-06-24T01:41:54.204Z,100108.23
2018-06-24T01:43:30.278Z,100111.91
2018-06-24T01:45:06.539Z,100116.56
2018-06-24T01:46:42.546Z,100116.78
2018-06-24T01:48:18.588Z,100115.34
2018-06-24T01:49:54.581Z,100113.10
2018-06-24T01:51:31.738Z,100111.31
2018-06-24T01:53:07.731Z,100109.69
2018-06-24T01:54:43.690Z,100106.09
2018-06-24T01:56:19.663Z,100106.35
2018-06-24T01:57:55.592Z,100102.30
2018-06-24T01:59:31.569Z,100103.73
2018-06-24T02:01:07.604Z,100106.64
2018-06-24T02:02:43.614Z,100105.16
2018-06-24T02:04:19.532Z,100105.30
2018-06-24T02:05:55.548Z,100097.78
2018-06-24T02:07:31.513Z,100100.17
2018-06-24T02:09:11.149Z,100098.84
2018-06-24T02:10:47.144Z,100100.16
2018-06-24T02:12:23.178Z,100095.50
2018-06-24T02:13:59.151Z,100101.55
2018-06-24T02:15:35.226Z,100102.39
2018-06-24T02:17:12.272Z,100097.19
2018-06-24T02:18:48.552Z,100092.97
2018-06-24T02:20:24.906Z,100094.06
2018-06-24T02:22:01.353Z,100087.83
2018-06-24T02:23:37.401Z,100089.87
2018-06-24T02:25:13.845Z,100090.09
2018-06-24T02:26:50.356Z,100093.83
2018-06-24T02:28:26.356Z,100084.45
2018-06-24T02:30:02.410Z,100083.33
2018-06-24T02:31:38.430Z,100087.80
2018-06-24T02:33:14.447Z,100083.56
2018-06-24T02:34:50.433Z,100080.70
2018-06-24T02:36:27.611Z,100077.70
2018-06-24T02:38:03.634Z,100078.92
2018-06-24T02:39:39.583Z,100076.17
2018-06-24T02:41:15.573Z,100071.11
2018-06-24T02:42:51.549Z,100074.33
2018-06-24T02:44:27.543Z,100068.91
2018-06-24T02:46:03.523Z,100071.28
2018-06-24T02:47:39.522Z,100076.81
2018-06-24T02:49:15.715Z,100073.20
2018-06-24T02:50:52.551Z,100076.31
2018-06-24T02:52:29.537Z,100077.03
2018-06-24T02:54:05.801Z,100078.36
2018-06-24T02:55:41.771Z,100075.52
2018-06-24T02:57:17.752Z,100077.70
2018-06-24T02:58:53.735Z,100075.89
2018-06-24T03:00:29.689Z,100076.38
2018-06-24T03:02:05.746Z,100081.39
2018-06-24T03:03:41.710Z,100076.73
2018-06-24T03:05:17.753Z,100083.75
2018-06-24T03:06:53.746Z,100081.69
2018-06-24T03:08:29.679Z,100079.62
2018-06-24T03:10:05.668Z,100078.65
2018-06-24T03:11:42.005Z,100078.30
2018-06-24T03:13:17.988Z,100071.94
2018-06-24T03:14:53.976Z,100072.31
2018-06-24T03:16:29.958Z,100071.10
2018-06-24T03:18:06.199Z,100071.58
2018-06-24T03:19:42.191Z,100068.69
2018-06-24T03:21:18.533Z,100065.59
2018-06-24T03:22:54.589Z,100069.78
2018-06-24T03:24:30.625Z,100071.37
2018-06-24T03:26:06.723Z,100071.61
2018-06-24T03:27:42.754Z,100071.27
2018-06-24T03:29:18.755Z,100070.55
2018-06-24T03:30:54.669Z,100065.14
2018-06-24T03:32:30.633Z,100068.27
2018-06-24T03:34:06.877Z,100065.27
2018-06-24T03:35:42.600Z,100063.70
2018-06-24T03:37:18.443Z,100071.61
2018-06-24T03:38:54.388Z,100067.91
2018-06-24T03:40:30.742Z,100063.84
2018-06-24T03:42:06.721Z,100067.66
2018-06-24T03:43:42.730Z,100064.78
2018-06-24T03:45:18.517Z,100066.14
2018-06-24T03:46:55.376Z,100067.55
2018-06-24T03:48:31.319Z,100067.56
2018-06-24T03:50:07.270Z,100062.75
2018-06-24T03:51:43.257Z,100058.19
2018-06-24T03:53:19.311Z,100062.06
2018-06-24T03:54:55.296Z,100065.16
2018-06-24T03:56:31.021Z,100057.70
2018-06-24T03:58:06.871Z,100058.80
2018-06-24T03:59:43.243Z,100060.00
2018-06-24T04:01:19.078Z,100057.59
2018-06-24T04:02:55.069Z,100062.05
2018-06-24T04:04:31.666Z,100062.29
2018-06-24T04:06:08.497Z,100060.25
2018-06-24T04:07:44.522Z,100059.50
2018-06-24T04:09:20.535Z,100061.67
2018-06-24T04:10:56.487Z,100058.81
2018-06-24T04:12:32.422Z,100062.76
2018-06-24T04:14:08.375Z,100061.45
2018-06-24T04:15:44.397Z,100060.38
2018-06-24T04:17:20.353Z,100060.27
2018-06-24T04:18:56.580Z,100068.30
2018-06-24T04:20:32.550Z,100065.32
2018-06-24T04:22:08.975Z,100066.74
2018-06-24T04:23:48.970Z,100070.58
2018-06-24T04:25:25.470Z,100070.34
2018-06-24T04:27:01.541Z,100072.39
2018-06-24T04:28:37.501Z,100072.41
2018-06-24T04:30:13.492Z,100062.91
2018-06-24T04:31:49.530Z,100062.06
2018-06-24T04:33:26.008Z,100061.56
2018-06-24T04:35:02.476Z,100064.11
2018-06-24T04:36:38.482Z,100064.11
2018-06-24T04:38:21.588Z,100066.05
2018-06-24T04:39:57.642Z,100062.79
2018-06-24T04:41:51.054Z,100064.25
2018-06-24T04:43:30.837Z,100061.57
2018-06-24T04:45:07.040Z,100065.53
2018-06-24T04:46:43.542Z,100063.73
2018-06-24T04:48:19.541Z,100069.03
2018-06-24T04:49:55.603Z,100063.45
2018-06-24T04:51:32.700Z,100064.63
2018-06-24T04:53:08.690Z,100071.05
2018-06-24T04:54:44.858Z,100068.73
2018-06-24T04:56:20.804Z,100068.25
2018-06-24T04:57:56.776Z,100074.27
2018-06-24T04:59:33.079Z,100072.47
2018-06-24T05:01:09.732Z,100067.75
2018-06-24T05:02:45.827Z,100070.48
2018-06-24T05:04:21.821Z,100074.55
2018-06-24T05:05:57.846Z,100072.66
2018-06-24T05:07:33.845Z,100072.86
2018-06-24T05:09:10.892Z,100071.91
2018-06-24T05:10:46.980Z,100070.02
2018-06-24T05:12:22.989Z,100071.81
2018-06-24T05:13:58.771Z,100075.37
2018-06-24T05:15:34.751Z,100069.73
2018-06-24T05:17:11.226Z,100058.16
2018-06-24T05:18:47.509Z,100068.17
2018-06-24T05:20:23.985Z,100060.02
2018-06-24T05:21:59.984Z,100057.46
2018-06-24T05:23:37.458Z,100059.08
2018-06-24T05:25:13.832Z,100061.08
2018-06-24T05:26:50.642Z,100061.84
2018-06-24T05:28:27.141Z,100062.57
2018-06-24T05:30:04.813Z,100065.97
2018-06-24T05:31:43.138Z,100069.56
2018-06-24T05:33:20.498Z,100070.44
2018-06-24T05:34:57.932Z,100067.73
2018-06-24T05:36:41.033Z,100064.39
2018-06-24T05:38:18.430Z,100059.86
2018-06-24T05:39:54.989Z,100064.75
2018-06-24T05:41:31.137Z,100058.02
2018-06-24T05:43:07.220Z,100056.69
2018-06-24T05:44:43.129Z,100062.63
2018-06-24T05:46:21.064Z,100072.14
2018-06-24T05:47:57.087Z,100069.44
2018-06-24T05:49:34.774Z,100070.88
2018-06-24T05:51:10.826Z,100067.71
2018-06-24T05:52:47.029Z,100061.44
2018-06-24T05:54:23.025Z,100061.70
2018-06-24T05:56:00.099Z,100066.52
2018-06-24T05:57:36.153Z,100064.20
2018-06-24T05:59:12.477Z,100060.70
2018-06-24T06:00:48.487Z,100060.56
2018-06-24T06:02:29.978Z,100064.37
2018-06-24T06:04:07.455Z,100056.92
2018-06-24T06:05:45.945Z,100062.83
2018-06-24T06:07:23.692Z,100059.94
2018-06-24T06:09:00.637Z,100065.85
2018-06-24T06:10:38.696Z,100063.58
2018-06-24T06:13:57.635Z,100065.38
2018-06-24T06:15:34.325Z,100066.95
2018-06-24T06:17:11.027Z,100068.11
2018-06-24T06:18:52.268Z,100061.84
2018-06-24T06:20:29.531Z,100067.29
2018-06-24T06:22:07.042Z,100069.42
2018-06-24T06:25:41.730Z,100065.80
2018-06-24T06:27:18.549Z,100065.11
2018-06-24T06:28:57.120Z,100069.42
2018-06-24T06:30:34.689Z,100066.48
2018-06-24T06:32:11.877Z,100068.98
2018-06-24T06:33:49.299Z,100060.37
2018-06-24T06:35:25.045Z,100061.60
2018-06-24T06:37:18.749Z,100068.72
2018-06-24T06:38:58.966Z,100060.59
2018-06-24T06:40:35.924Z,100063.99
2018-06-24T06:42:12.013Z,100055.02
2018-06-24T06:43:48.194Z,100061.01
2018-06-24T06:45:24.512Z,100054.06
2018-06-24T06:47:00.471Z,100045.45
2018-06-24T06:48:36.649Z,100056.32
2018-06-24T06:50:13.269Z,100050.13
2018-06-24T06:51:52.376Z,100049.06
2018-06-24T06:53:36.675Z,100046.55
2018-06-24T06:55:15.362Z,100050.18
2018-06-24T06:56:53.234Z,100047.52
2018-06-24T06:58:31.379Z,100058.42
2018-06-24T07:00:08.385Z,100052.56
2018-06-24T07:01:45.418Z,100053.61
2018-06-24T07:03:22.091Z,100054.18
2018-06-24T07:05:00.636Z,100058.86
2018-06-24T07:06:38.212Z,100074.50
2018-06-24T07:08:14.581Z,100072.55
2018-06-24T07:09:50.368Z,100068.34
2018-06-24T07:13:40.479Z,100069.03
2018-06-24T07:15:20.170Z,100062.70
2018-06-24T07:17:07.924Z,100062.77
2018-06-24T07:28:18.430Z,100058.99
2018-06-24T07:34:53.394Z,100061.38
2018-06-24T07:36:29.312Z,100045.29
2018-06-24T07:38:05.580Z,100044.39
2018-06-24T07:39:41.337Z,100048.23
2018-06-24T07:41:33.390Z,100038.08
2018-06-24T07:43:17.044Z,100044.37
2018-06-24T07:44:53.085Z,100044.75
2018-06-24T07:46:30.249Z,100043.27
2018-06-24T07:48:07.176Z,100044.16
2018-06-24T07:49:43.385Z,100041.12
2018-06-24T07:51:19.361Z,100047.89
2018-06-24T07:52:55.130Z,100041.39
2018-06-24T07:54:32.780Z,100039.33
2018-06-24T07:56:09.603Z,100038.67
2018-06-24T07:57:45.720Z,100049.39
2018-06-24T07:59:21.704Z,100036.56
2018-06-24T08:00:57.718Z,100037.82
2018-06-24T08:02:35.086Z,100045.66
2018-06-24T08:04:19.831Z,100041.86
2018-06-24T08:05:59.181Z,100050.85
2018-06-24T08:07:36.302Z,100046.14
2018-06-24T08:09:15.738Z,100043.34
2018-06-24T08:10:52.037Z,100051.20
2018-06-24T08:12:28.224Z,100041.37
2018-06-24T08:14:08.063Z,100049.25
2018-06-24T08:15:46.048Z,100053.95
2018-06-24T08:17:27.122Z,100047.92
2018-06-24T08:19:08.917Z,100045.41
2018-06-24T08:20:48.479Z,100052.55
2018-06-24T08:22:25.764Z,100053.39
2018-06-24T08:24:01.859Z,100063.17
2018-06-24T08:25:37.879Z,100066.02
2018-06-24T08:27:13.949Z,100061.39
2018-06-24T08:28:49.975Z,100071.77
2018-06-24T08:30:25.991Z,100072.14
2018-06-24T08:32:01.980Z,100070.29
2018-06-24T08:33:38.062Z,100066.15
2018-06-24T08:35:18.455Z,100064.95
2018-06-24T08:37:04.027Z,100069.47
2018-06-24T08:38:40.609Z,100071.87
2018-06-24T08:40:18.722Z,100074.52
2018-06-24T08:42:17.085Z,100067.45
2018-06-24T08:43:58.113Z,100067.53
2018-06-24T08:45:37.069Z,100078.20
2018-06-24T08:47:17.101Z,100064.65
2018-06-24T08:48:57.606Z,100065.53
2018-06-24T08:50:35.964Z,100072.69
2018-06-24T08:52:13.429Z,100060.74
2018-06-24T08:53:51.163Z,100069.85
2018-06-24T08:55:27.369Z,100062.82
2018-06-24T08:57:06.440Z,100069.17
2018-06-24T08:58:45.134Z,100060.86
2018-06-24T09:00:24.372Z,100061.87
2018-06-24T09:02:03.132Z,100064.78
2018-06-24T09:03:42.843Z,100066.27
2018-06-24T09:05:24.314Z,100069.33
2018-06-24T09:07:03.271Z,100069.36
2018-06-24T09:08:40.220Z,100068.61
2018-06-24T09:10:20.246Z,100071.02
2018-06-24T09:12:07.222Z,100076.20
2018-06-24T09:15:29.366Z,100077.62
2018-06-24T09:17:07.127Z,100074.84
2018-06-24T09:18:46.072Z,100081.70
2018-06-24T09:20:22.570Z,100086.60
2018-06-24T09:21:58.818Z,100079.50
2018-06-24T09:23:38.586Z,100080.53
2018-06-24T09:25:16.305Z,100085.98
2018-06-24T09:26:59.122Z,100088.98
2018-06-24T09:28:36.234Z,100094.45
2018-06-24T09:30:12.250Z,100076.72
2018-06-24T09:31:48.249Z,100081.47
2018-06-24T09:33:24.590Z,100084.23
2018-06-24T09:35:02.678Z,100085.01
2018-06-24T09:36:39.741Z,100089.23
2018-06-24T09:38:15.714Z,100090.02
2018-06-24T09:39:51.676Z,100097.98
2018-06-24T09:41:27.619Z,100094.55
2018-06-24T09:43:03.652Z,100084.52
2018-06-24T09:44:39.633Z,100094.06
2018-06-24T09:46:15.357Z,100091.10
2018-06-24T09:47:51.125Z,100085.99
2018-06-24T09:49:27.309Z,100088.69
2018-06-24T09:51:03.332Z,100081.70
2018-06-24T09:52:39.250Z,100030.17
2018-06-24T09:54:15.232Z,100071.08
2018-06-24T09:55:51.235Z,100067.67
2018-06-24T09:57:27.491Z,100073.91
2018-06-24T09:59:03.428Z,100068.72
2018-06-24T10:00:39.380Z,100068.14
2018-06-24T10:02:15.357Z,100068.44
2018-06-24T10:03:51.340Z,100067.40
2018-06-24T10:05:27.261Z,100060.64
2018-06-24T10:07:03.259Z,100063.28
2018-06-24T10:08:39.224Z,100077.23
2018-06-24T10:10:15.173Z,100064.37
2018-06-24T10:11:51.137Z,100067.80
2018-06-24T10:13:27.053Z,100065.92
2018-06-24T10:15:03.033Z,100066.02
2018-06-24T10:16:39.284Z,100069.00
2018-06-24T10:18:15.228Z,100064.17
2018-06-24T10:19:51.201Z,100064.16
2018-06-24T10:21:27.325Z,100070.27
2018-06-24T10:23:03.304Z,100061.77
2018-06-24T10:24:39.273Z,100071.17
2018-06-24T10:26:15.409Z,100059.01
2018-06-24T10:27:51.474Z,100069.16
2018-06-24T10:29:27.495Z,100066.69
2018-06-24T10:31:03.439Z,100068.89
2018-06-24T10:32:39.375Z,100069.86
2018-06-24T10:34:15.443Z,100071.97
2018-06-24T10:35:51.665Z,100065.53
2018-06-24T10:37:27.652Z,100059.17
2018-06-24T10:39:04.676Z,100064.20
2018-06-24T10:40:41.507Z,100069.39
2018-06-24T10:42:18.864Z,100072.58
2018-06-24T10:43:56.526Z,100065.94
2018-06-24T10:45:34.523Z,100067.83
2018-06-24T10:47:10.489Z,100061.12
2018-06-24T10:48:47.807Z,100057.39
2018-06-24T10:50:23.917Z,100057.34
2018-06-24T10:52:00.510Z,100063.34
2018-06-24T10:53:37.786Z,100055.44
2018-06-24T10:55:14.941Z,100054.25
2018-06-24T10:56:51.961Z,100061.42
2018-06-24T10:58:28.488Z,100064.78
2018-06-24T11:00:05.061Z,100062.08
2018-06-24T11:01:41.445Z,100067.53
2018-06-24T11:03:18.321Z,100062.60
2018-06-24T11:04:54.541Z,100063.52
2018-06-24T11:06:30.548Z,100068.27
2018-06-24T11:08:07.195Z,100062.50
2018-06-24T11:09:43.262Z,100057.84
2018-06-24T11:11:19.830Z,100057.73
2018-06-24T11:12:56.069Z,100054.59
2018-06-24T11:14:33.372Z,100060.41
2018-06-24T11:16:09.835Z,100051.30
2018-06-24T11:17:46.022Z,100053.55
2018-06-24T11:19:22.654Z,100061.96
2018-06-24T11:20:58.831Z,100060.16
2018-06-24T11:22:34.892Z,100058.95
2018-06-24T11:24:12.063Z,100055.98
2018-06-24T11:25:48.773Z,100061.75
2018-06-24T11:27:24.900Z,100055.91
2018-06-24T11:29:03.715Z,100051.66
2018-06-24T11:30:39.852Z,100047.94
2018-06-24T11:32:15.902Z,100052.58
2018-06-24T11:33:52.741Z,100051.02
2018-06-24T11:35:29.284Z,100052.16
2018-06-24T11:37:05.710Z,100054.22
2018-06-24T11:38:42.389Z,100052.52
2018-06-24T11:40:18.857Z,100049.02
2018-06-24T11:41:55.823Z,100044.75
2018-06-24T11:43:31.875Z,100044.09
2018-06-24T11:45:08.402Z,100041.55
2018-06-24T11:46:49.028Z,100043.06
2018-06-24T11:48:25.647Z,100036.38
2018-06-24T11:50:11.371Z,100031.38
2018-06-24T11:51:48.049Z,100035.83
2018-06-24T11:53:24.345Z,100028.02
2018-06-24T11:55:02.559Z,100031.03
2018-06-24T11:56:39.858Z,100028.16
2018-06-24T11:58:16.090Z,100025.14
2018-06-24T11:59:53.560Z,100031.19
2018-06-24T12:01:30.051Z,100020.02
2018-06-24T12:03:07.012Z,100022.01
2018-06-24T12:04:44.143Z,100030.53
2018-06-24T12:06:22.600Z,100032.05
2018-06-24T12:08:01.707Z,100024.52
2018-06-24T12:09:38.841Z,100023.50
2018-06-24T12:11:14.853Z,100011.98
2018-06-24T12:12:52.775Z,100017.83
2018-06-24T12:14:28.782Z,100014.00
2018-06-24T12:16:05.224Z,100017.31
2018-06-24T12:17:43.008Z,100009.30
2018-06-24T12:19:25.609Z,100021.41
2018-06-24T12:21:02.522Z,100003.63
2018-06-24T12:22:38.569Z,100016.48
2018-06-24T12:24:15.250Z,100018.97
2018-06-24T12:25:52.657Z,100014.96
2018-06-24T12:27:33.135Z,100016.23
2018-06-24T12:29:11.944Z,100013.45
2018-06-24T12:30:49.787Z,100017.31
2018-06-24T12:32:29.105Z,100017.02
2018-06-24T12:34:05.430Z,100017.47
2018-06-24T12:35:41.621Z,100013.47
2018-06-24T12:37:17.625Z,100009.99
2018-06-24T12:38:54.288Z,100006.81
2018-06-24T12:40:34.320Z,100004.28
2018-06-24T12:42:12.049Z,100008.30
2018-06-24T12:43:48.246Z,100007.14
2018-06-24T12:45:24.652Z,100005.32
2018-06-24T12:47:00.675Z,100003.98
2018-06-24T12:48:36.853Z,100001.30
2018-06-24T12:50:13.444Z,100002.61
2018-06-24T12:51:49.717Z,100005.96
2018-06-24T12:53:25.676Z,99997.19
2018-06-24T12:55:02.023Z,99992.59
2018-06-24T12:56:38.892Z,99995.09
2018-06-24T12:58:14.989Z,100001.59
2018-06-24T12:59:51.412Z,99994.09
2018-06-24T13:01:29.992Z,99989.59
2018-06-24T13:03:06.472Z,99984.89
2018-06-24T13:04:42.768Z,99983.34
2018-06-24T13:06:18.731Z,99986.73
2018-06-24T13:07:54.699Z,99984.88
2018-06-24T13:09:33.065Z,99976.37
2018-06-24T13:11:13.046Z,99979.56
2018-06-24T13:12:50.632Z,99981.92
2018-06-24T13:14:33.166Z,99986.94
2018-06-24T13:16:15.370Z,100000.96
2018-06-24T13:17:58.829Z,99980.98
2018-06-24T13:19:48.538Z,99985.36
2018-06-24T13:21:53.284Z,99975.20
2018-06-24T13:23:51.922Z,99967.52
2018-06-24T13:25:55.001Z,99968.88
2018-06-24T13:27:35.140Z,99968.86
2018-06-24T13:29:11.193Z,99966.52
2018-06-24T13:30:48.332Z,99965.52
2018-06-24T13:32:26.426Z,99958.02
2018-06-24T13:34:03.582Z,99961.88
2018-06-24T13:35:40.626Z,99957.33
2018-06-24T13:37:20.307Z,99956.63
2018-06-24T13:38:57.996Z,99954.44
2018-06-24T13:40:35.642Z,99958.78
2018-06-24T13:42:18.458Z,99959.67
2018-06-24T13:43:55.401Z,99950.78
2018-06-24T13:45:31.477Z,99956.48
2018-06-24T13:47:13.526Z,99958.03
2018-06-24T13:48:50.112Z,99955.84
2018-06-24T13:50:26.417Z,99956.86
2018-06-24T13:52:02.917Z,99954.03
2018-06-24T13:53:39.924Z,99957.69
2018-06-24T13:55:16.380Z,99955.69
2018-06-24T13:56:52.545Z,99957.50
2018-06-24T13:58:29.728Z,99951.34
2018-06-24T14:00:06.468Z,99952.84
2018-06-24T14:01:42.481Z,99960.27
2018-06-24T14:03:18.498Z,99952.95
2018-06-24T14:05:02.322Z,99942.09
2018-06-24T14:06:38.728Z,99956.50
2018-06-24T14:08:17.829Z,99950.70
2018-06-24T14:09:53.854Z,99943.62
2018-06-24T14:11:29.869Z,99944.98
2018-06-24T14:13:06.689Z,99944.17
2018-06-24T14:14:43.970Z,99947.74
2018-06-24T14:16:19.969Z,99952.09
2018-06-24T14:17:56.018Z,99938.80
2018-06-24T14:19:32.199Z,99935.13
2018-06-24T14:21:08.159Z,99943.43
2018-06-24T14:22:44.567Z,99940.77
2018-06-24T14:24:20.606Z,99942.09
2018-06-24T14:25:57.897Z,99945.56
2018-06-24T14:27:33.912Z,99955.08
2018-06-24T14:29:09.916Z,99947.72
2018-06-24T14:30:47.067Z,99932.86
2018-06-24T14:32:23.382Z,99944.40
2018-06-24T14:34:01.771Z,99943.88
2018-06-24T14:35:39.881Z,99935.55
2018-06-24T14:37:16.309Z,99936.07
2018-06-24T14:38:52.360Z,99934.19
2018-06-24T14:40:32.583Z,99931.89
2018-06-24T14:42:09.410Z,99932.92
2018-06-24T14:43:45.360Z,99926.57
2018-06-24T14:45:21.317Z,99917.06
2018-06-24T14:46:57.359Z,99931.00
2018-06-24T14:48:33.959Z,99933.18
2018-06-24T14:50:11.020Z,99936.14
2018-06-24T14:51:49.272Z,99947.97
2018-06-24T14:53:25.280Z,99939.34
2018-06-24T14:55:01.269Z,99943.52
2018-06-24T14:56:37.217Z,99937.89
2018-06-24T14:58:13.981Z,99935.14
2018-06-24T14:59:50.684Z,99935.54
2018-06-24T15:01:27.190Z,99930.25
2018-06-24T15:03:03.080Z,99942.83
2018-06-24T15:04:39.137Z,99944.48
2018-06-24T15:06:16.253Z,99959.14
2018-06-24T15:07:52.787Z,99941.98
2018-06-24T15:09:28.736Z,99947.07
2018-06-24T15:11:04.769Z,99943.86
2018-06-24T15:12:41.872Z,99944.96
2018-06-24T15:14:17.836Z,99944.06
2018-06-24T15:15:53.851Z,99951.79
2018-06-24T15:17:30.021Z,99932.37
2018-06-24T15:19:06.645Z,99939.26
2018-06-24T15:20:42.688Z,99937.48
2018-06-24T15:22:18.668Z,99936.11
2018-06-24T15:23:54.659Z,99941.64
2018-06-24T15:25:30.708Z,99930.42
2018-06-24T15:27:06.656Z,99934.67
2018-06-24T15:28:43.572Z,99935.28
2018-06-24T15:30:19.622Z,99937.35
2018-06-24T15:31:55.740Z,99934.72
2018-06-24T15:33:31.735Z,99929.66
2018-06-24T15:35:07.805Z,99931.43
2018-06-24T15:36:43.945Z,99931.95
2018-06-24T15:38:19.960Z,99934.69
2018-06-24T15:39:56.043Z,99933.63
2018-06-24T15:41:32.043Z,99938.00
2018-06-24T15:43:08.549Z,99929.63
2018-06-24T15:44:44.745Z,99938.91
2018-06-24T15:46:20.711Z,99939.91
2018-06-24T15:48:01.395Z,99935.45
2018-06-24T15:49:37.432Z,99934.28
2018-06-24T15:51:15.937Z,99938.22
2018-06-24T15:52:52.141Z,99935.91
2018-06-24T15:54:29.356Z,99933.66
2018-06-24T15:56:05.356Z,99935.36
2018-06-24T15:57:41.329Z,99939.32
2018-06-24T15:59:17.716Z,99940.87
2018-06-24T16:00:54.221Z,99945.86
2018-06-24T16:02:31.237Z,99932.80
2018-06-24T16:04:07.198Z,99932.73
2018-06-24T16:05:43.630Z,99942.41
2018-06-24T16:07:19.648Z,99943.44
2018-06-24T16:08:55.654Z,99941.62
2018-06-24T16:10:32.033Z,99949.04
2018-06-24T16:12:10.819Z,99946.02
2018-06-24T16:13:47.346Z,99949.97
2018-06-24T16:15:23.387Z,99953.11
2018-06-24T16:17:02.155Z,99955.52
2018-06-24T16:18:40.957Z,99956.84
2018-06-24T16:20:19.013Z,99960.58
2018-06-24T16:21:56.092Z,99957.94
2018-06-24T16:23:36.332Z,99967.28
2018-06-24T16:25:13.782Z,99967.70
2018-06-24T16:26:50.570Z,99971.55
2018-06-24T16:28:28.006Z,99979.94
2018-06-24T16:30:04.826Z,99968.15
2018-06-24T16:31:41.583Z,99975.05
2018-06-24T16:33:17.625Z,99967.17
2018-06-24T16:34:53.562Z,99976.86
2018-06-24T16:36:29.493Z,99982.54
2018-06-24T16:38:05.677Z,99979.73
2018-06-24T16:39:41.645Z,99984.04
2018-06-24T16:41:19.433Z,99981.48
2018-06-24T16:42:55.388Z,99984.13
2018-06-24T16:44:32.514Z,99988.17
2018-06-24T16:46:08.484Z,99979.73
2018-06-24T16:47:44.639Z,99987.09
2018-06-24T16:49:20.556Z,99992.73
2018-06-24T16:50:56.897Z,99993.63
2018-06-24T16:52:32.944Z,99988.23
2018-06-24T16:54:08.700Z,99985.94
2018-06-24T16:55:44.481Z,99994.64
2018-06-24T16:57:23.552Z,99991.23
2018-06-24T16:58:59.906Z,99987.97
2018-06-24T17:00:35.869Z,99989.87
2018-06-24T17:02:11.876Z,99985.77
2018-06-24T17:03:48.513Z,99987.42
2018-06-24T17:05:26.402Z,99988.66
2018-06-24T17:07:02.525Z,99982.33
2018-06-24T17:08:49.022Z,99981.47
2018-06-24T17:10:30.315Z,99976.45
2018-06-24T17:12:07.289Z,99973.59
2018-06-24T17:13:43.298Z,99980.86
2018-06-24T17:15:20.117Z,99978.95
2018-06-24T17:16:56.097Z,99978.33
2018-06-24T17:18:32.143Z,99983.72
2018-06-24T17:20:08.228Z,99991.27
2018-06-24T17:21:44.285Z,99997.05
2018-06-24T17:23:20.262Z,99996.30
2018-06-24T17:24:56.357Z,100002.39
2018-06-24T17:26:32.391Z,100002.64
2018-06-24T17:28:08.440Z,99999.24
2018-06-24T17:29:59.517Z,99995.84
2018-06-24T17:31:36.417Z,99999.06
2018-06-24T17:33:16.134Z,99991.44
2018-06-24T17:34:55.272Z,99988.12
2018-06-24T17:36:35.848Z,99996.36
2018-06-24T17:38:13.917Z,99993.30
2018-06-24T17:39:54.422Z,99994.27
2018-06-24T17:41:30.477Z,99983.89
2018-06-24T17:43:06.738Z,99982.27
2018-06-24T17:44:51.437Z,99985.47
2018-06-24T17:46:27.473Z,99988.22
2018-06-24T17:48:07.844Z,99980.77
2018-06-24T17:49:51.178Z,99975.70
2018-06-24T17:51:28.965Z,99975.81
2018-06-24T17:53:06.304Z,99970.08
2018-06-24T17:55:10.055Z,99969.94
2018-06-24T17:56:50.570Z,99973.65
2018-06-24T17:58:47.093Z,99974.38
2018-06-24T18:00:26.366Z,99971.81
2018-06-24T18:02:09.964Z,99968.79
2018-06-24T18:03:56.172Z,99964.28
2018-06-24T18:05:37.082Z,99960.62
2018-06-24T18:07:13.845Z,99960.20
2018-06-24T18:10:45.202Z,99960.80
2018-06-24T18:12:21.667Z,99962.11
2018-06-24T18:14:14.177Z,99961.47
2018-06-24T18:16:25.121Z,99962.84
2018-06-24T18:18:09.254Z,99957.14
2018-06-24T18:19:47.003Z,99965.49
2018-06-24T18:21:23.903Z,99961.48
2018-06-24T18:23:03.082Z,99963.92
2018-06-24T18:24:49.775Z,99969.18
2018-06-24T18:26:28.285Z,99960.34
2018-06-24T18:28:04.474Z,99954.93
2018-06-24T18:29:40.515Z,99961.05
2018-06-24T18:31:17.081Z,99959.99
2018-06-24T18:32:53.132Z,99960.04
2018-06-24T18:34:29.273Z,99956.89
2018-06-24T18:36:10.500Z,99958.06
2018-06-24T18:37:46.320Z,99956.84
2018-06-24T18:39:37.233Z,99957.73
2018-06-24T18:41:13.540Z,99962.19
2018-06-24T18:42:54.061Z,99955.80
2018-06-24T18:44:31.163Z,99954.04
2018-06-24T18:46:07.310Z,99956.59
2018-06-24T18:48:03.523Z,99955.62
2018-06-24T18:49:39.330Z,99953.42
2018-06-24T18:51:15.186Z,99950.51
2018-06-24T18:53:01.100Z,99952.57
2018-06-24T18:54:43.236Z,99954.00
2018-06-24T18:56:20.486Z,99955.37
2018-06-24T18:57:57.615Z,99952.20
2018-06-24T18:59:34.052Z,99953.38
2018-06-24T19:01:11.831Z,99959.12
2018-06-24T19:02:48.082Z,99956.52
2018-06-24T19:04:24.040Z,99962.91
2018-06-24T19:06:00.083Z,99958.08